createdAt,value
2023-04-07T00:01:03.726Z,3.15
2023-04-07T00:03:34.112Z,3.18
2023-04-07T00:06:03.870Z,3.16
2023-04-07T00:08:33.633Z,3.15
2023-04-07T00:11:03.349Z,3.00
2023-04-07T00:13:33.032Z,3.01
2023-04-07T00:16:02.722Z,2.92
2023-04-07T00:18:32.372Z,2.98
2023-04-07T00:21:01.984Z,2.97
2023-04-07T00:23:32.006Z,2.97
2023-04-07T00:26:01.727Z,3.18
2023-04-07T00:28:31.339Z,3.11
2023-04-07T00:31:01.646Z,3.32
2023-04-07T00:33:31.677Z,3.01
2023-04-07T00:36:01.383Z,2.99
2023-04-07T00:38:31.407Z,2.83
2023-04-07T00:41:01.976Z,2.98
2023-04-07T00:43:31.585Z,2.93
2023-04-07T00:46:01.654Z,2.95
2023-04-07T00:48:31.734Z,3.00
2023-04-07T00:51:01.538Z,2.87
2023-04-07T00:53:31.269Z,2.83
2023-04-07T00:56:01.239Z,2.75
2023-04-07T00:58:31.005Z,2.95
2023-04-07T01:01:16.129Z,2.93
2023-04-07T01:04:10.591Z,2.81
2023-04-07T01:06:48.153Z,2.96
2023-04-07T01:09:37.843Z,2.84
2023-04-07T01:12:31.847Z,2.88
2023-04-07T01:15:10.097Z,2.80
2023-04-07T01:17:50.363Z,2.84
2023-04-07T01:20:23.859Z,2.96
2023-04-07T01:23:04.653Z,2.99
2023-04-07T01:26:00.046Z,3.03
2023-04-07T01:28:44.436Z,2.84
2023-04-07T01:31:17.922Z,2.94
2023-04-07T01:33:49.228Z,2.96
2023-04-07T01:36:20.371Z,2.96
2023-04-07T01:38:52.332Z,2.75
2023-04-07T01:41:24.312Z,2.74
2023-04-07T01:43:56.052Z,2.69
2023-04-07T01:46:26.263Z,2.84
2023-04-07T01:48:58.031Z,3.01
2023-04-07T01:51:29.857Z,3.02
2023-04-07T01:54:01.156Z,2.73
2023-04-07T01:56:30.809Z,2.75
2023-04-07T01:59:00.850Z,2.80
2023-04-07T02:01:31.222Z,2.87
2023-04-07T02:04:33.102Z,2.95
2023-04-07T02:07:42.414Z,2.96
2023-04-07T02:10:17.157Z,2.78
2023-04-07T02:12:48.688Z,2.87
2023-04-07T02:15:20.581Z,2.78
2023-04-07T02:17:54.915Z,2.67
2023-04-07T02:20:25.818Z,2.69
2023-04-07T02:22:56.089Z,2.66
2023-04-07T02:25:32.523Z,2.71
2023-04-07T02:28:02.239Z,2.87
2023-04-07T02:30:32.970Z,3.02
2023-04-07T02:33:02.870Z,2.98
2023-04-07T02:35:32.574Z,2.70
2023-04-07T02:38:02.190Z,2.75
2023-04-07T02:40:31.824Z,2.82
2023-04-07T02:43:01.692Z,2.74
2023-04-07T02:45:31.779Z,2.71
2023-04-07T02:48:01.472Z,2.73
2023-04-07T02:50:31.343Z,2.81
2023-04-07T02:53:01.066Z,2.65
2023-04-07T02:55:30.813Z,2.81
2023-04-07T02:58:00.510Z,2.79
2023-04-07T03:00:30.170Z,2.73
2023-04-07T03:03:00.002Z,2.63
2023-04-07T03:05:29.784Z,2.73
2023-04-07T03:07:59.460Z,2.63
2023-04-07T03:10:29.134Z,2.67
2023-04-07T03:12:58.832Z,2.95
2023-04-07T03:15:28.556Z,2.84
2023-04-07T03:17:58.302Z,2.72
2023-04-07T03:20:28.105Z,2.74
2023-04-07T03:22:57.757Z,2.61
2023-04-07T03:25:27.791Z,2.74
2023-04-07T03:27:57.480Z,2.69
2023-04-07T03:30:27.708Z,2.76
2023-04-07T03:32:57.426Z,2.88
2023-04-07T03:35:27.639Z,2.90
2023-04-07T03:37:57.253Z,3.01
2023-04-07T03:40:27.015Z,2.94
2023-04-07T03:42:56.939Z,2.69
2023-04-07T03:45:26.684Z,2.70
2023-04-07T03:47:56.371Z,2.63
2023-04-07T03:50:26.347Z,2.62
2023-04-07T03:52:55.993Z,2.75
2023-04-07T03:55:26.255Z,2.65
2023-04-07T03:57:56.198Z,2.79
2023-04-07T04:00:27.159Z,2.67
2023-04-07T04:02:56.988Z,2.79
2023-04-07T04:05:26.834Z,2.84
2023-04-07T04:07:56.805Z,2.74
2023-04-07T04:10:26.509Z,2.67
2023-04-07T04:12:56.195Z,2.75
2023-04-07T04:15:25.093Z,2.98
2023-04-07T04:17:54.697Z,2.91
2023-04-07T04:20:24.460Z,2.86
2023-04-07T04:22:54.127Z,2.82
2023-04-07T04:25:24.547Z,2.88
2023-04-07T04:27:54.136Z,2.82
2023-04-07T04:30:23.819Z,2.74
2023-04-07T04:32:53.850Z,2.74
2023-04-07T04:35:23.540Z,2.90
2023-04-07T04:37:53.235Z,2.80
2023-04-07T04:40:22.884Z,2.80
2023-04-07T04:42:52.538Z,2.77
2023-04-07T04:45:22.151Z,2.88
2023-04-07T04:47:51.819Z,2.75
2023-04-07T04:50:21.673Z,2.83
2023-04-07T04:52:51.438Z,2.62
2023-04-07T04:55:21.246Z,2.93
2023-04-07T04:57:50.974Z,2.83
2023-04-07T05:00:21.433Z,2.88
2023-04-07T05:02:51.252Z,2.97
2023-04-07T05:05:21.336Z,3.17
2023-04-07T05:07:51.156Z,3.22
2023-04-07T05:10:20.774Z,3.15
2023-04-07T05:12:51.075Z,3.13
2023-04-07T05:15:21.088Z,3.16
2023-04-07T05:17:50.895Z,3.29
2023-04-07T05:20:20.532Z,3.35
2023-04-07T05:22:50.137Z,3.28
2023-04-07T05:25:19.748Z,3.35
2023-04-07T05:27:49.463Z,3.26
2023-04-07T05:30:19.315Z,3.21
2023-04-07T05:32:49.077Z,3.26
2023-04-07T05:35:18.941Z,3.35
2023-04-07T05:37:48.669Z,3.52
2023-04-07T05:40:18.584Z,3.49
2023-04-07T05:42:48.194Z,3.57
2023-04-07T05:45:18.021Z,3.45
2023-04-07T05:47:50.324Z,3.82
2023-04-07T05:50:20.120Z,3.74
2023-04-07T05:52:49.789Z,3.74
2023-04-07T05:55:19.530Z,3.68
2023-04-07T05:57:49.670Z,3.80
2023-04-07T06:00:20.129Z,3.76
2023-04-07T06:02:50.095Z,3.80
2023-04-07T06:05:20.369Z,3.93
2023-04-07T06:07:50.083Z,3.66
2023-04-07T06:10:19.775Z,3.70
2023-04-07T06:12:49.495Z,3.89
2023-04-07T06:15:19.287Z,3.69
2023-04-07T06:17:48.955Z,4.09
2023-04-07T06:20:20.215Z,4.28
2023-04-07T06:22:49.954Z,4.10
2023-04-07T06:25:19.687Z,4.40
2023-04-07T06:27:49.352Z,4.17
2023-04-07T06:30:19.010Z,4.65
2023-04-07T06:32:48.698Z,4.44
2023-04-07T06:35:18.418Z,4.40
2023-04-07T06:37:48.144Z,4.22
2023-04-07T06:40:17.946Z,4.53
2023-04-07T06:42:47.556Z,4.51
2023-04-07T06:45:17.318Z,4.57
2023-04-07T06:47:47.145Z,4.43
2023-04-07T06:50:20.947Z,4.11
2023-04-07T06:52:50.598Z,4.04
2023-04-07T06:55:20.260Z,4.48
2023-04-07T06:57:52.524Z,4.55
2023-04-07T07:00:23.293Z,4.43
2023-04-07T07:02:53.002Z,4.67
2023-04-07T07:05:23.663Z,4.65
2023-04-07T07:07:53.330Z,4.45
2023-04-07T07:10:22.966Z,4.21
2023-04-07T07:12:53.165Z,4.32
2023-04-07T07:15:22.775Z,4.24
2023-04-07T07:17:52.578Z,4.38
2023-04-07T07:20:23.756Z,4.55
2023-04-07T07:22:53.478Z,4.62
2023-04-07T07:25:23.397Z,4.40
2023-04-07T07:27:53.785Z,4.39
2023-04-07T07:30:24.806Z,4.65
2023-04-07T07:32:55.633Z,4.51
2023-04-07T07:35:25.628Z,4.62
2023-04-07T07:37:55.244Z,4.82
2023-04-07T07:40:25.546Z,4.84
2023-04-07T07:42:55.288Z,4.51
2023-04-07T07:45:25.142Z,4.60
2023-04-07T07:47:54.798Z,4.64
2023-04-07T07:50:23.916Z,4.86
2023-04-07T07:52:53.560Z,4.80
2023-04-07T07:55:23.264Z,4.48
2023-04-07T07:57:52.816Z,4.60
2023-04-07T08:00:24.242Z,4.53
2023-04-07T08:02:53.972Z,5.05
2023-04-07T08:05:23.805Z,5.10
2023-04-07T08:07:55.653Z,4.97
2023-04-07T08:10:25.617Z,5.17
2023-04-07T08:12:55.194Z,5.34
2023-04-07T08:15:24.024Z,5.25
2023-04-07T08:17:54.837Z,5.52
2023-04-07T08:20:26.856Z,5.57
2023-04-07T08:22:56.536Z,5.38
2023-04-07T08:25:26.167Z,5.31
2023-04-07T08:27:55.986Z,5.24
2023-04-07T08:30:25.953Z,5.55
2023-04-07T08:32:55.608Z,5.38
2023-04-07T08:35:25.258Z,5.50
2023-04-07T08:37:54.801Z,5.54
2023-04-07T08:40:23.933Z,5.38
2023-04-07T08:42:53.540Z,5.69
2023-04-07T08:45:23.378Z,5.36
2023-04-07T08:47:57.501Z,5.13
2023-04-07T08:50:28.486Z,5.50
2023-04-07T08:53:05.270Z,5.65
2023-04-07T08:55:37.388Z,5.50
2023-04-07T08:58:06.577Z,5.13
2023-04-07T09:00:35.465Z,5.30
2023-04-07T09:03:05.958Z,5.37
2023-04-07T09:05:36.231Z,5.83
2023-04-07T09:08:05.894Z,5.46
2023-04-07T09:10:37.019Z,5.62
2023-04-07T09:13:06.949Z,5.87
2023-04-07T09:15:38.637Z,5.70
2023-04-07T09:18:08.557Z,5.83
2023-04-07T09:21:03.257Z,5.96
2023-04-07T09:23:37.302Z,5.97
2023-04-07T09:26:19.094Z,6.25
2023-04-07T09:28:54.806Z,5.88
2023-04-07T09:31:46.110Z,6.00
2023-04-07T09:34:37.283Z,6.41
2023-04-07T09:37:12.082Z,6.45
2023-04-07T09:39:54.070Z,6.30
2023-04-07T09:42:23.714Z,6.16
2023-04-07T09:44:53.587Z,6.36
2023-04-07T09:47:33.041Z,6.54
2023-04-07T09:50:07.263Z,6.57
2023-04-07T09:52:53.883Z,6.53
2023-04-07T09:55:26.041Z,6.88
2023-04-07T09:57:56.677Z,6.70
2023-04-07T10:00:26.700Z,6.42
2023-04-07T10:03:07.076Z,6.92
2023-04-07T10:05:37.029Z,6.62
2023-04-07T10:08:07.926Z,6.64
2023-04-07T10:10:41.200Z,6.49
2023-04-07T10:13:11.312Z,6.68
2023-04-07T10:15:40.852Z,6.33
2023-04-07T10:18:11.167Z,6.57
2023-04-07T10:20:42.488Z,6.55
2023-04-07T10:23:41.754Z,6.82
2023-04-07T10:26:12.863Z,6.66
2023-04-07T10:28:46.944Z,6.84
2023-04-07T10:31:17.882Z,6.90
2023-04-07T10:33:52.859Z,6.72
2023-04-07T10:36:25.836Z,6.82
2023-04-07T10:39:07.707Z,6.87
2023-04-07T10:41:43.543Z,6.86
2023-04-07T10:44:42.242Z,7.00
2023-04-07T10:47:12.460Z,7.05
2023-04-07T10:50:23.976Z,7.13
2023-04-07T10:53:13.039Z,6.95
2023-04-07T10:55:47.515Z,7.57
2023-04-07T10:58:32.202Z,7.48
2023-04-07T11:01:04.997Z,7.36
2023-04-07T11:03:57.881Z,7.18
2023-04-07T11:06:27.958Z,7.02
2023-04-07T11:08:57.108Z,7.19
2023-04-07T11:11:41.981Z,6.86
2023-04-07T11:14:11.118Z,6.72
2023-04-07T11:16:43.818Z,7.09
2023-04-07T11:19:12.890Z,6.98
2023-04-07T11:21:41.732Z,6.79
2023-04-07T11:24:11.935Z,6.87
2023-04-07T11:26:43.897Z,6.70
2023-04-07T11:29:12.945Z,6.87
2023-04-07T11:31:48.912Z,6.54
2023-04-07T11:34:18.540Z,6.42
2023-04-07T11:36:48.117Z,6.66
2023-04-07T11:39:23.294Z,6.79
2023-04-07T11:41:52.248Z,6.67
2023-04-07T11:44:21.328Z,6.46
2023-04-07T11:47:00.784Z,6.59
2023-04-07T11:49:29.756Z,6.35
2023-04-07T11:52:04.244Z,6.55
2023-04-07T11:54:47.548Z,6.73
2023-04-07T11:57:29.344Z,6.64
2023-04-07T12:00:13.660Z,6.46
2023-04-07T12:02:43.653Z,6.58
2023-04-07T12:05:13.145Z,6.54
2023-04-07T12:07:54.465Z,6.55
2023-04-07T12:10:26.605Z,6.70
2023-04-07T12:12:56.403Z,6.48
2023-04-07T12:15:27.593Z,6.93
2023-04-07T12:17:56.902Z,6.79
2023-04-07T12:20:25.646Z,6.67
2023-04-07T12:22:55.290Z,6.99
2023-04-07T12:25:24.527Z,6.77
2023-04-07T12:27:53.339Z,6.96
2023-04-07T12:30:23.060Z,6.68
2023-04-07T12:32:51.926Z,6.43
2023-04-07T12:35:20.731Z,6.97
2023-04-07T12:37:52.126Z,6.97
2023-04-07T12:40:21.413Z,6.72
2023-04-07T12:42:50.183Z,7.11
2023-04-07T12:45:19.090Z,6.86
2023-04-07T12:47:48.969Z,6.97
2023-04-07T12:50:17.932Z,7.02
2023-04-07T12:52:46.729Z,7.21
2023-04-07T12:55:15.611Z,6.82
2023-04-07T12:57:44.664Z,6.86
2023-04-07T13:00:14.706Z,6.74
2023-04-07T13:02:44.308Z,6.67
2023-04-07T13:05:14.159Z,6.98
2023-04-07T13:07:43.715Z,7.11
2023-04-07T13:10:12.511Z,6.92
2023-04-07T13:12:42.505Z,6.54
2023-04-07T13:15:11.365Z,6.90
2023-04-07T13:17:40.966Z,6.64
2023-04-07T13:20:09.628Z,6.68
2023-04-07T13:22:48.247Z,6.57
2023-04-07T13:25:17.865Z,6.43
2023-04-07T13:27:46.914Z,6.53
2023-04-07T13:30:16.288Z,6.35
2023-04-07T13:32:49.293Z,6.32
2023-04-07T13:35:19.534Z,6.55
2023-04-07T13:37:48.427Z,6.31
2023-04-07T13:40:18.125Z,6.28
2023-04-07T13:42:47.078Z,6.36
2023-04-07T13:45:16.715Z,6.31
2023-04-07T13:47:46.385Z,6.33
2023-04-07T13:50:16.160Z,6.26
2023-04-07T13:52:45.801Z,6.23
2023-04-07T13:55:16.227Z,6.21
2023-04-07T13:57:46.066Z,6.38
2023-04-07T14:00:16.001Z,6.25
2023-04-07T14:02:46.009Z,6.20
2023-04-07T14:05:14.422Z,6.37
2023-04-07T14:07:43.242Z,6.55
2023-04-07T14:10:12.054Z,6.64
2023-04-07T14:12:41.379Z,6.49
2023-04-07T14:15:11.267Z,6.44
2023-04-07T14:17:40.039Z,6.33
2023-04-07T14:20:09.541Z,6.28
2023-04-07T14:22:38.314Z,6.34
2023-04-07T14:25:09.714Z,6.12
2023-04-07T14:27:39.311Z,6.25
2023-04-07T14:30:09.243Z,6.14
2023-04-07T14:32:38.090Z,6.17
2023-04-07T14:35:08.526Z,6.13
2023-04-07T14:37:38.431Z,6.23
2023-04-07T14:40:09.141Z,6.11
2023-04-07T14:42:38.667Z,6.16
2023-04-07T14:45:08.444Z,6.13
2023-04-07T14:47:36.366Z,6.22
2023-04-07T14:50:06.722Z,6.08
2023-04-07T14:52:36.288Z,6.19
2023-04-07T14:55:06.977Z,6.24
2023-04-07T14:57:36.570Z,6.32
2023-04-07T15:00:07.809Z,6.17
2023-04-07T15:02:37.795Z,6.18
2023-04-07T15:05:08.737Z,6.24
2023-04-07T15:07:38.443Z,6.03
2023-04-07T15:10:08.783Z,5.90
2023-04-07T15:12:38.372Z,5.98
2023-04-07T15:15:07.865Z,5.96
2023-04-07T15:17:43.872Z,5.99
2023-04-07T15:20:14.772Z,5.96
2023-04-07T15:22:44.321Z,6.01
2023-04-07T15:25:13.968Z,5.93
2023-04-07T15:27:43.547Z,5.69
2023-04-07T15:30:13.602Z,5.86
2023-04-07T15:32:44.514Z,5.88
2023-04-07T15:35:13.419Z,5.83
2023-04-07T15:37:43.042Z,5.85
2023-04-07T15:40:13.027Z,5.79
2023-04-07T15:42:42.588Z,5.98
2023-04-07T15:45:12.526Z,5.92
2023-04-07T15:47:42.186Z,5.85
2023-04-07T15:50:12.131Z,5.78
2023-04-07T15:52:41.694Z,5.60
2023-04-07T15:55:11.788Z,5.84
2023-04-07T15:57:41.076Z,5.70
2023-04-07T16:00:11.269Z,5.79
2023-04-07T16:02:41.084Z,5.78
2023-04-07T16:05:11.027Z,5.88
2023-04-07T16:07:40.653Z,5.74
2023-04-07T16:10:12.604Z,5.62
2023-04-07T16:12:42.279Z,5.45
2023-04-07T16:15:22.622Z,5.54
2023-04-07T16:18:06.706Z,5.57
2023-04-07T16:20:36.403Z,5.55
2023-04-07T16:23:06.127Z,5.69
2023-04-07T16:25:36.576Z,5.75
2023-04-07T16:28:06.358Z,5.56
2023-04-07T16:30:36.388Z,5.53
2023-04-07T16:33:06.009Z,5.54
2023-04-07T16:35:35.784Z,5.54
2023-04-07T16:38:06.426Z,5.53
2023-04-07T16:40:35.144Z,5.28
2023-04-07T16:43:04.679Z,5.49
2023-04-07T16:45:34.292Z,5.45
2023-04-07T16:48:03.303Z,5.56
2023-04-07T16:50:32.987Z,5.43
2023-04-07T16:53:02.854Z,5.31
2023-04-07T16:55:32.397Z,5.39
2023-04-07T16:58:01.931Z,5.58
2023-04-07T17:00:31.659Z,5.44
2023-04-07T17:03:00.434Z,5.30
2023-04-07T17:05:30.061Z,5.22
2023-04-07T17:07:59.628Z,5.31
2023-04-07T17:10:29.288Z,5.35
2023-04-07T17:12:58.933Z,5.33
2023-04-07T17:15:28.583Z,5.22
2023-04-07T17:17:58.801Z,5.36
2023-04-07T17:20:28.453Z,5.15
2023-04-07T17:22:58.047Z,5.19
2023-04-07T17:25:30.050Z,5.32
2023-04-07T17:27:59.649Z,5.17
2023-04-07T17:30:29.271Z,5.19
2023-04-07T17:32:58.933Z,5.15
2023-04-07T17:35:28.480Z,5.33
2023-04-07T17:37:58.854Z,5.21
2023-04-07T17:40:31.522Z,5.20
2023-04-07T17:43:01.317Z,5.18
2023-04-07T17:45:30.304Z,5.16
2023-04-07T17:48:04.088Z,5.22
2023-04-07T17:50:33.706Z,5.21
2023-04-07T17:53:03.280Z,5.17
2023-04-07T17:55:33.349Z,5.05
2023-04-07T17:58:02.976Z,4.95
2023-04-07T18:00:32.786Z,5.04
2023-04-07T18:03:02.845Z,5.01
2023-04-07T18:05:32.928Z,5.07
2023-04-07T18:08:02.888Z,5.16
2023-04-07T18:10:31.668Z,4.89
2023-04-07T18:13:03.320Z,5.04
2023-04-07T18:15:33.792Z,5.08
2023-04-07T18:18:03.527Z,4.96
2023-04-07T18:20:33.217Z,5.00
2023-04-07T18:23:03.237Z,5.10
2023-04-07T18:25:32.999Z,5.17
2023-04-07T18:28:04.256Z,5.06
2023-04-07T18:30:33.825Z,5.05
2023-04-07T18:33:02.703Z,5.04
2023-04-07T18:35:33.017Z,4.94
2023-04-07T18:38:04.743Z,4.87
2023-04-07T18:40:35.582Z,5.00
2023-04-07T18:43:05.224Z,4.86
2023-04-07T18:45:37.159Z,4.94
2023-04-07T18:48:07.009Z,5.04
2023-04-07T18:50:36.630Z,4.82
2023-04-07T18:53:07.252Z,4.88
2023-04-07T18:55:36.839Z,4.87
2023-04-07T18:58:05.599Z,4.77
2023-04-07T19:00:35.564Z,4.83
2023-04-07T19:03:05.408Z,4.60
2023-04-07T19:05:36.819Z,4.84
2023-04-07T19:08:07.017Z,4.76
2023-04-07T19:10:36.746Z,4.67
2023-04-07T19:13:06.464Z,4.72
2023-04-07T19:15:40.853Z,4.70
2023-04-07T19:18:10.478Z,4.71
2023-04-07T19:20:43.356Z,4.82
2023-04-07T19:23:19.058Z,4.85
2023-04-07T19:25:48.810Z,4.77
2023-04-07T19:28:18.576Z,4.69
2023-04-07T19:30:48.193Z,4.72
2023-04-07T19:33:17.859Z,4.81
2023-04-07T19:35:47.505Z,4.60
2023-04-07T19:38:17.188Z,4.69
2023-04-07T19:40:46.939Z,4.77
2023-04-07T19:43:17.664Z,4.64
2023-04-07T19:45:49.543Z,4.74
2023-04-07T19:48:19.393Z,4.50
2023-04-07T19:50:50.154Z,4.58
2023-04-07T19:53:19.780Z,4.69
2023-04-07T19:55:50.270Z,4.70
2023-04-07T19:58:22.204Z,4.75
2023-04-07T20:00:52.155Z,4.67
2023-04-07T20:03:22.174Z,4.69
2023-04-07T20:05:53.147Z,4.57
2023-04-07T20:08:22.765Z,4.78
2023-04-07T20:10:53.059Z,4.46
2023-04-07T20:13:24.426Z,4.55
2023-04-07T20:15:54.130Z,4.58
2023-04-07T20:18:23.706Z,4.77
2023-04-07T20:21:01.044Z,4.63
2023-04-07T20:23:30.680Z,4.69
2023-04-07T20:26:02.447Z,4.61
2023-04-07T20:28:32.301Z,4.58
2023-04-07T20:31:02.141Z,4.61
2023-04-07T20:33:31.763Z,4.70
2023-04-07T20:36:01.432Z,4.57
2023-04-07T20:38:31.109Z,4.54
2023-04-07T20:41:00.661Z,4.41
2023-04-07T20:43:30.570Z,4.52
2023-04-07T20:46:13.429Z,4.60
2023-04-07T20:48:43.370Z,4.50
2023-04-07T20:51:13.661Z,4.36
2023-04-07T20:53:43.273Z,4.40
2023-04-07T20:56:34.882Z,4.51
2023-04-07T20:59:04.451Z,4.25
2023-04-07T21:01:34.115Z,4.38
2023-04-07T21:04:04.157Z,4.33
2023-04-07T21:06:33.880Z,4.20
2023-04-07T21:09:05.852Z,4.20
2023-04-07T21:11:38.440Z,4.36
2023-04-07T21:14:06.287Z,4.37
2023-04-07T21:16:35.901Z,4.45
2023-04-07T21:19:06.571Z,4.29
2023-04-07T21:21:36.202Z,4.27
2023-04-07T21:24:06.197Z,4.25
2023-04-07T21:26:36.244Z,4.41
2023-04-07T21:29:05.859Z,4.39
2023-04-07T21:31:35.616Z,4.23
2023-04-07T21:34:04.501Z,4.28
2023-04-07T21:36:34.802Z,4.25
2023-04-07T21:39:04.770Z,4.30
2023-04-07T21:41:32.660Z,4.18
2023-04-07T21:44:02.578Z,4.06
2023-04-07T21:46:33.416Z,4.04
2023-04-07T21:49:03.659Z,4.15
2023-04-07T21:51:33.949Z,4.32
2023-04-07T21:54:02.757Z,4.32
2023-04-07T21:56:32.459Z,4.09
2023-04-07T21:59:01.737Z,4.23
2023-04-07T22:01:31.447Z,3.91
2023-04-07T22:04:01.486Z,4.09
2023-04-07T22:06:31.529Z,4.18
2023-04-07T22:09:02.106Z,4.21
2023-04-07T22:11:32.281Z,4.12
2023-04-07T22:14:02.035Z,4.13
2023-04-07T22:16:31.731Z,3.95
2023-04-07T22:19:01.763Z,4.10
2023-04-07T22:21:31.713Z,4.19
2023-04-07T22:24:01.287Z,4.15
2023-04-07T22:26:31.975Z,4.19
2023-04-07T22:29:00.912Z,4.21
2023-04-07T22:31:29.747Z,4.17
2023-04-07T22:33:59.358Z,4.03
2023-04-07T22:36:28.917Z,4.11
2023-04-07T22:38:57.734Z,4.14
2023-04-07T22:41:27.076Z,4.08
2023-04-07T22:43:57.139Z,4.10
2023-04-07T22:46:26.703Z,4.23
2023-04-07T22:48:57.365Z,4.10
2023-04-07T22:51:27.349Z,4.17
2023-04-07T22:53:57.425Z,4.22
2023-04-07T22:56:27.384Z,4.18
2023-04-07T22:59:05.686Z,4.14
2023-04-07T23:01:35.118Z,4.05
2023-04-07T23:04:04.012Z,4.07
2023-04-07T23:06:33.642Z,4.10
2023-04-07T23:09:02.481Z,3.88
2023-04-07T23:11:31.272Z,4.14
2023-04-07T23:14:05.149Z,4.17
2023-04-07T23:16:35.482Z,4.20
2023-04-07T23:19:05.166Z,4.08
2023-04-07T23:21:34.873Z,4.16
2023-04-07T23:24:04.628Z,4.26
2023-04-07T23:26:33.413Z,4.08
2023-04-07T23:29:02.295Z,4.16
2023-04-07T23:31:32.374Z,4.02
2023-04-07T23:34:01.393Z,4.06
2023-04-07T23:36:31.740Z,4.14
2023-04-07T23:39:02.262Z,4.06
2023-04-07T23:41:32.381Z,4.18
2023-04-07T23:44:02.490Z,4.17
2023-04-07T23:46:32.167Z,4.20
2023-04-07T23:49:00.968Z,3.90
2023-04-07T23:51:30.855Z,3.98
2023-04-07T23:54:00.417Z,3.90
2023-04-07T23:56:30.062Z,3.90
2023-04-07T23:58:57.971Z,3.90
